createdAt,value
2023-01-22T00:02:09.051Z,6.72
2023-01-22T00:04:41.586Z,7.13
2023-01-22T00:07:11.085Z,6.75
2023-01-22T00:09:37.538Z,6.57
2023-01-22T00:12:05.534Z,6.88
2023-01-22T00:14:32.074Z,7.15
2023-01-22T00:16:58.639Z,7.05
2023-01-22T00:19:25.193Z,7.00
2023-01-22T00:21:51.647Z,6.78
2023-01-22T00:24:18.079Z,7.25
2023-01-22T00:26:44.545Z,7.50
2023-01-22T00:29:11.127Z,7.57
2023-01-22T00:31:37.802Z,6.95
2023-01-22T00:34:04.824Z,6.68
2023-01-22T00:36:31.304Z,7.30
2023-01-22T00:38:57.808Z,7.38
2023-01-22T00:41:24.264Z,7.03
2023-01-22T00:43:52.868Z,7.25
2023-01-22T00:46:19.494Z,7.00
2023-01-22T00:48:45.961Z,8.20
2023-01-22T00:51:13.286Z,7.38
2023-01-22T00:53:41.484Z,8.07
2023-01-22T00:56:12.480Z,8.02
2023-01-22T00:58:39.006Z,7.63
2023-01-22T01:01:05.967Z,7.82
2023-01-22T01:03:35.412Z,7.63
2023-01-22T01:06:05.982Z,7.40
2023-01-22T01:08:34.703Z,7.75
2023-01-22T01:11:02.656Z,7.82
2023-01-22T01:13:30.740Z,7.50
2023-01-22T01:16:00.509Z,8.30
2023-01-22T01:18:28.121Z,8.32
2023-01-22T01:20:58.205Z,7.47
2023-01-22T01:23:27.467Z,8.20
2023-01-22T01:25:54.025Z,7.40
2023-01-22T01:28:20.623Z,8.90
2023-01-22T01:30:47.116Z,8.25
2023-01-22T01:33:13.877Z,8.52
2023-01-22T01:35:40.393Z,8.20
2023-01-22T01:38:06.911Z,8.68
2023-01-22T01:40:34.156Z,8.13
2023-01-22T01:43:00.607Z,8.52
2023-01-22T01:45:34.053Z,8.40
2023-01-22T01:48:09.302Z,8.65
2023-01-22T01:50:38.092Z,9.00
2023-01-22T01:53:04.682Z,8.93
2023-01-22T01:55:31.740Z,9.10
2023-01-22T01:58:00.534Z,9.10
2023-01-22T02:00:28.578Z,8.80
2023-01-22T02:02:55.258Z,9.13
2023-01-22T02:05:22.421Z,8.48
2023-01-22T02:07:48.882Z,8.75
2023-01-22T02:10:15.769Z,9.27
2023-01-22T02:12:42.312Z,9.20
2023-01-22T02:15:09.329Z,8.57
2023-01-22T02:17:36.128Z,9.10
2023-01-22T02:20:02.718Z,8.75
2023-01-22T02:22:32.907Z,8.85
2023-01-22T02:25:06.075Z,8.95
2023-01-22T02:27:32.639Z,8.95
2023-01-22T02:29:59.050Z,7.75
2023-01-22T02:32:25.853Z,8.73
2023-01-22T02:34:52.288Z,8.80
2023-01-22T02:37:18.830Z,9.18
2023-01-22T02:39:45.416Z,8.55
2023-01-22T02:42:12.419Z,8.40
2023-01-22T02:44:38.921Z,8.63
2023-01-22T02:47:05.415Z,8.93
2023-01-22T02:49:33.769Z,8.70
2023-01-22T02:52:00.274Z,8.50
2023-01-22T02:54:26.688Z,8.43
2023-01-22T02:56:53.080Z,8.82
2023-01-22T02:59:19.564Z,7.78
2023-01-22T03:01:45.991Z,8.05
2023-01-22T03:04:15.383Z,7.65
2023-01-22T03:06:43.087Z,8.10
2023-01-22T03:09:10.761Z,8.48
2023-01-22T03:11:37.900Z,7.90
2023-01-22T03:14:25.720Z,8.27
2023-01-22T03:17:12.212Z,8.18
2023-01-22T03:19:57.175Z,7.88
2023-01-22T03:22:23.626Z,8.18
2023-01-22T03:24:53.612Z,7.63
2023-01-22T03:27:20.900Z,8.40
2023-01-22T03:29:47.337Z,7.53
2023-01-22T03:32:14.004Z,7.60
2023-01-22T03:34:42.278Z,8.57
2023-01-22T03:37:08.950Z,8.07
2023-01-22T03:39:35.493Z,8.35
2023-01-22T03:42:01.905Z,8.20
2023-01-22T03:44:28.349Z,8.35
2023-01-22T03:46:58.771Z,8.05
2023-01-22T03:49:26.354Z,8.47
2023-01-22T03:51:52.776Z,8.18
2023-01-22T03:54:19.205Z,8.50
2023-01-22T03:56:45.637Z,8.05
2023-01-22T03:59:12.040Z,8.38
2023-01-22T04:01:40.999Z,8.00
2023-01-22T04:04:07.404Z,8.25
2023-01-22T04:06:35.929Z,7.75
2023-01-22T04:09:02.323Z,8.10
2023-01-22T04:11:31.126Z,8.30
2023-01-22T04:13:57.566Z,8.25
2023-01-22T04:16:24.121Z,7.70
2023-01-22T04:18:52.147Z,7.55
2023-01-22T04:21:18.590Z,8.23
2023-01-22T04:23:45.068Z,7.70
2023-01-22T04:26:14.882Z,7.78
2023-01-22T04:28:41.300Z,8.13
2023-01-22T04:31:09.665Z,8.27
2023-01-22T04:33:36.319Z,7.70
2023-01-22T04:36:02.787Z,8.05
2023-01-22T04:38:29.288Z,8.50
2023-01-22T04:40:55.817Z,7.53
2023-01-22T04:43:22.245Z,8.82
2023-01-22T04:45:49.607Z,8.48
2023-01-22T04:48:30.087Z,8.10
2023-01-22T04:50:56.546Z,8.43
2023-01-22T04:53:22.970Z,8.63
2023-01-22T04:55:49.502Z,8.68
2023-01-22T04:58:16.009Z,8.45
2023-01-22T05:00:42.594Z,8.40
2023-01-22T05:03:09.761Z,7.97
2023-01-22T05:05:36.161Z,8.45
2023-01-22T05:08:03.253Z,8.52
2023-01-22T05:10:29.936Z,7.65
2023-01-22T05:12:57.355Z,7.55
2023-01-22T05:15:24.986Z,7.75
2023-01-22T05:17:52.549Z,7.38
2023-01-22T05:20:19.244Z,8.10
2023-01-22T05:22:45.853Z,7.50
2023-01-22T05:25:12.475Z,7.47
2023-01-22T05:27:38.952Z,7.05
2023-01-22T05:30:08.749Z,7.13
2023-01-22T05:32:36.334Z,6.75
2023-01-22T05:35:02.960Z,6.30
2023-01-22T05:37:29.386Z,6.78
2023-01-22T05:39:55.816Z,6.65
2023-01-22T05:42:22.375Z,6.10
2023-01-22T05:44:49.028Z,6.20
2023-01-22T05:47:15.916Z,5.90
2023-01-22T05:49:42.439Z,5.75
2023-01-22T05:52:12.044Z,5.97
2023-01-22T05:54:39.946Z,5.82
2023-01-22T05:57:06.737Z,5.78
2023-01-22T05:59:33.423Z,5.70
2023-01-22T06:01:59.923Z,5.43
2023-01-22T06:04:26.394Z,5.13
2023-01-22T06:06:55.826Z,4.97
2023-01-22T06:09:24.832Z,5.32
2023-01-22T06:11:51.362Z,5.25
2023-01-22T06:14:17.879Z,4.72
2023-01-22T06:16:44.397Z,4.63
2023-01-22T06:19:11.283Z,5.18
2023-01-22T06:21:37.819Z,4.90
2023-01-22T06:24:04.475Z,4.97
2023-01-22T06:26:30.941Z,4.78
2023-01-22T06:28:57.388Z,4.45
2023-01-22T06:31:24.024Z,4.80
2023-01-22T06:33:57.937Z,4.85
2023-01-22T06:36:24.399Z,4.75
2023-01-22T06:38:50.864Z,4.47
2023-01-22T06:41:17.260Z,4.70
2023-01-22T06:43:43.714Z,3.90
2023-01-22T06:46:13.831Z,4.40
2023-01-22T06:48:43.602Z,4.38
2023-01-22T06:51:10.382Z,4.03
2023-01-22T06:53:42.095Z,3.90
2023-01-22T06:56:08.612Z,4.00
2023-01-22T06:58:35.082Z,4.00
2023-01-22T07:01:02.211Z,3.83
2023-01-22T07:03:28.835Z,4.05
2023-01-22T07:05:57.203Z,3.83
2023-01-22T07:08:23.757Z,4.28
2023-01-22T07:10:50.277Z,4.38
2023-01-22T07:13:16.788Z,4.38
2023-01-22T07:15:43.283Z,4.45
2023-01-22T07:18:10.550Z,4.40
2023-01-22T07:20:37.187Z,5.10
2023-01-22T07:23:12.318Z,5.00
2023-01-22T07:25:38.789Z,4.72
2023-01-22T07:28:05.978Z,4.95
2023-01-22T07:30:35.219Z,4.32
2023-01-22T07:33:02.430Z,5.38
2023-01-22T07:35:32.799Z,5.10
2023-01-22T07:38:00.002Z,5.60
2023-01-22T07:40:26.538Z,5.60
2023-01-22T07:42:53.425Z,5.60
2023-01-22T07:45:20.039Z,6.15
2023-01-22T07:47:59.965Z,6.20
2023-01-22T07:50:27.783Z,6.50
2023-01-22T07:52:54.803Z,6.30
2023-01-22T07:55:21.598Z,6.53
2023-01-22T07:57:47.994Z,7.05
2023-01-22T08:00:16.259Z,6.93
2023-01-22T08:02:42.918Z,6.47
2023-01-22T08:05:10.488Z,6.88
2023-01-22T08:07:38.948Z,7.20
2023-01-22T08:10:05.607Z,7.50
2023-01-22T08:12:32.045Z,7.28
2023-01-22T08:14:58.473Z,7.15
2023-01-22T08:17:24.899Z,7.25
2023-01-22T08:19:51.530Z,7.20
2023-01-22T08:22:17.980Z,7.15
2023-01-22T08:24:44.392Z,7.00
2023-01-22T08:27:10.870Z,6.95
2023-01-22T08:29:37.273Z,7.60
2023-01-22T08:32:03.832Z,7.63
2023-01-22T08:34:30.294Z,6.97
2023-01-22T08:36:56.798Z,7.30
2023-01-22T08:39:24.412Z,6.82
2023-01-22T08:41:52.307Z,7.03
2023-01-22T08:44:18.745Z,7.47
2023-01-22T08:46:45.181Z,6.85
2023-01-22T08:49:11.583Z,7.18
2023-01-22T08:51:38.172Z,6.88
2023-01-22T08:54:04.915Z,6.95
2023-01-22T08:56:33.707Z,6.95
2023-01-22T08:59:06.495Z,6.90
2023-01-22T09:01:33.704Z,6.40
2023-01-22T09:04:00.453Z,7.43
2023-01-22T09:06:29.699Z,6.80
2023-01-22T09:08:56.192Z,6.60
2023-01-22T09:11:22.653Z,5.78
2023-01-22T09:13:55.160Z,6.35
2023-01-22T09:16:23.151Z,6.43
2023-01-22T09:18:49.762Z,6.60
2023-01-22T09:21:17.302Z,6.18
2023-01-22T09:23:43.991Z,6.22
2023-01-22T09:26:10.473Z,6.30
2023-01-22T09:28:39.312Z,6.05
2023-01-22T09:31:05.805Z,6.00
2023-01-22T09:33:33.587Z,5.95
2023-01-22T09:36:07.176Z,5.88
2023-01-22T09:38:34.132Z,6.35
2023-01-22T09:41:02.955Z,6.00
2023-01-22T09:43:52.911Z,5.97
2023-01-22T09:46:27.013Z,5.97
2023-01-22T09:48:56.454Z,5.75
2023-01-22T09:51:23.115Z,5.95
2023-01-22T09:53:55.383Z,5.65
2023-01-22T09:56:23.260Z,6.00
2023-01-22T09:58:50.140Z,5.95
2023-01-22T10:01:17.150Z,6.13
2023-01-22T10:03:45.756Z,6.20
2023-01-22T10:06:22.997Z,5.85
2023-01-22T10:08:52.202Z,6.28
2023-01-22T10:11:18.830Z,6.30
2023-01-22T10:13:45.259Z,6.43
2023-01-22T10:16:12.269Z,5.70
2023-01-22T10:19:16.732Z,6.47
2023-01-22T10:21:48.650Z,5.80
2023-01-22T10:24:17.261Z,6.05
2023-01-22T10:26:48.556Z,6.20
2023-01-22T10:29:21.278Z,5.85
2023-01-22T10:31:50.737Z,6.32
2023-01-22T10:34:28.811Z,6.55
2023-01-22T10:36:55.602Z,6.38
2023-01-22T10:39:22.224Z,6.18
2023-01-22T10:41:49.086Z,6.40
2023-01-22T10:44:23.080Z,6.30
2023-01-22T10:46:50.889Z,6.63
2023-01-22T10:49:20.140Z,7.15
2023-01-22T10:51:50.596Z,6.78
2023-01-22T10:54:31.998Z,6.72
2023-01-22T10:57:05.952Z,6.00
2023-01-22T10:59:32.629Z,7.32
2023-01-22T11:02:15.696Z,6.38
2023-01-22T11:04:42.210Z,6.80
2023-01-22T11:07:13.293Z,6.28
2023-01-22T11:09:41.833Z,6.28
2023-01-22T11:12:12.716Z,6.28
2023-01-22T11:14:39.463Z,6.20
2023-01-22T11:17:17.658Z,6.22
2023-01-22T11:19:47.201Z,5.88
2023-01-22T11:22:26.034Z,6.15
2023-01-22T11:24:52.611Z,6.30
2023-01-22T11:27:24.952Z,5.82
2023-01-22T11:32:20.850Z,6.05
2023-01-22T11:34:59.526Z,5.50
2023-01-22T11:37:25.869Z,5.50
2023-01-22T11:40:03.516Z,4.88
2023-01-22T11:42:39.335Z,5.47
2023-01-22T11:45:29.095Z,5.32
2023-01-22T11:48:28.584Z,5.32
2023-01-22T11:51:13.706Z,5.22
2023-01-22T11:53:48.599Z,5.40
2023-01-22T11:56:22.076Z,5.35
2023-01-22T11:59:08.972Z,5.40
2023-01-22T12:01:55.625Z,5.70
2023-01-22T12:04:40.471Z,5.05
2023-01-22T12:07:09.978Z,5.30
2023-01-22T12:10:01.477Z,5.38
2023-01-22T12:12:32.923Z,5.18
2023-01-22T12:15:21.775Z,5.35
2023-01-22T12:18:03.704Z,5.00
2023-01-22T12:20:48.489Z,4.38
2023-01-22T12:23:21.377Z,4.38
2023-01-22T12:25:57.494Z,4.60
2023-01-22T12:28:29.669Z,5.50
2023-01-22T12:30:56.201Z,5.47
2023-01-22T12:33:25.597Z,6.60
2023-01-22T12:35:52.983Z,6.68
2023-01-22T12:38:19.347Z,6.00
2023-01-22T12:40:55.003Z,6.30
2023-01-22T12:43:27.417Z,5.80
2023-01-22T12:48:22.279Z,5.30
2023-01-22T12:50:50.474Z,5.93
2023-01-22T12:53:28.830Z,5.95
2023-01-22T12:56:01.239Z,6.15
2023-01-22T13:01:07.005Z,6.63
2023-01-22T13:03:34.029Z,6.22
2023-01-22T13:06:01.777Z,6.40
2023-01-22T13:08:42.099Z,6.10
2023-01-22T13:11:30.998Z,6.68
2023-01-22T13:14:17.862Z,7.15
2023-01-22T13:17:10.799Z,7.07
2023-01-22T13:19:44.152Z,7.72
2023-01-22T13:22:13.764Z,6.88
2023-01-22T13:24:49.229Z,6.60
2023-01-22T13:27:22.554Z,7.43
2023-01-22T13:29:48.983Z,7.10
2023-01-22T13:32:22.832Z,7.03
2023-01-22T13:34:49.304Z,7.38
2023-01-22T13:37:22.996Z,6.93
2023-01-22T13:39:51.695Z,7.50
2023-01-22T13:42:18.447Z,7.47
2023-01-22T13:44:49.459Z,7.72
2023-01-22T13:47:21.693Z,6.82
2023-01-22T13:50:00.305Z,7.47
2023-01-22T13:52:29.473Z,6.97
2023-01-22T13:55:00.319Z,7.13
2023-01-22T13:57:26.691Z,6.90
2023-01-22T13:59:54.144Z,7.22
2023-01-22T14:02:21.697Z,6.97
2023-01-22T14:04:48.500Z,7.65
2023-01-22T14:07:24.138Z,7.78
2023-01-22T14:09:50.701Z,7.55
2023-01-22T14:12:23.237Z,7.43
2023-01-22T14:14:49.975Z,8.13
2023-01-22T14:17:20.375Z,8.07
2023-01-22T14:19:46.817Z,7.97
2023-01-22T14:22:13.210Z,7.43
2023-01-22T14:24:39.642Z,8.07
2023-01-22T14:27:06.239Z,8.05
2023-01-22T14:29:34.310Z,8.13
2023-01-22T14:32:02.338Z,8.35
2023-01-22T14:34:28.789Z,7.80
2023-01-22T14:36:55.199Z,8.10
2023-01-22T14:39:21.911Z,8.25
2023-01-22T14:41:55.685Z,8.07
2023-01-22T14:44:23.223Z,7.70
2023-01-22T14:46:51.428Z,8.52
2023-01-22T14:49:18.137Z,7.93
2023-01-22T14:51:44.777Z,8.18
2023-01-22T14:54:11.205Z,8.20
2023-01-22T14:56:37.625Z,8.38
2023-01-22T14:59:04.703Z,8.25
2023-01-22T15:01:31.124Z,7.90
2023-01-22T15:03:58.731Z,8.45
2023-01-22T15:06:25.193Z,7.95
2023-01-22T15:08:51.596Z,7.63
2023-01-22T15:11:18.022Z,8.10
2023-01-22T15:13:44.444Z,8.00
2023-01-22T15:16:11.193Z,7.10
2023-01-22T15:18:38.127Z,7.93
2023-01-22T15:21:07.300Z,7.68
2023-01-22T15:23:34.355Z,8.73
2023-01-22T15:26:05.159Z,8.10
2023-01-22T15:28:32.107Z,7.80
2023-01-22T15:31:00.683Z,7.75
2023-01-22T15:33:27.129Z,7.30
2023-01-22T15:35:53.640Z,8.05
2023-01-22T15:38:20.203Z,8.25
2023-01-22T15:40:46.784Z,8.10
2023-01-22T15:43:13.193Z,8.30
2023-01-22T15:45:39.563Z,8.65
2023-01-22T15:48:06.601Z,8.50
2023-01-22T15:50:33.031Z,8.95
2023-01-22T15:53:02.718Z,8.38
2023-01-22T15:55:29.352Z,8.48
2023-01-22T15:57:55.993Z,9.05
2023-01-22T16:00:22.669Z,8.70
2023-01-22T16:02:49.168Z,9.23
2023-01-22T16:05:15.892Z,8.25
2023-01-22T16:07:44.052Z,8.73
2023-01-22T16:10:10.905Z,8.52
2023-01-22T16:12:39.532Z,9.25
2023-01-22T16:15:06.831Z,8.55
2023-01-22T16:17:34.341Z,8.68
2023-01-22T16:20:00.818Z,8.45
2023-01-22T16:22:28.038Z,7.45
2023-01-22T16:24:54.437Z,8.90
2023-01-22T16:27:20.881Z,7.97
2023-01-22T16:29:47.307Z,8.20
2023-01-22T16:32:13.692Z,8.10
2023-01-22T16:34:40.238Z,7.70
2023-01-22T16:37:06.784Z,8.57
2023-01-22T16:39:33.983Z,8.38
2023-01-22T16:42:00.443Z,8.27
2023-01-22T16:44:27.570Z,7.90
2023-01-22T16:46:55.379Z,8.25
2023-01-22T16:49:22.982Z,8.40
2023-01-22T16:51:50.822Z,8.32
2023-01-22T16:54:21.773Z,9.15
2023-01-22T16:56:48.721Z,8.02
2023-01-22T16:59:15.665Z,8.75
2023-01-22T17:01:42.104Z,8.00
2023-01-22T17:04:08.879Z,7.60
2023-01-22T17:06:42.926Z,8.10
2023-01-22T17:09:12.874Z,8.30
2023-01-22T17:11:39.558Z,8.10
2023-01-22T17:14:07.863Z,7.07
2023-01-22T17:16:34.464Z,8.00
2023-01-22T17:19:01.147Z,7.82
2023-01-22T17:21:29.093Z,7.78
2023-01-22T17:23:55.580Z,7.60
2023-01-22T17:26:22.001Z,7.63
2023-01-22T17:28:48.495Z,7.45
2023-01-22T17:31:17.844Z,7.70
2023-01-22T17:33:44.526Z,8.00
2023-01-22T17:36:12.263Z,8.45
2023-01-22T17:38:39.179Z,8.05
2023-01-22T17:41:06.904Z,7.20
2023-01-22T17:43:33.886Z,7.25
2023-01-22T17:46:02.562Z,7.30
2023-01-22T17:48:30.775Z,7.05
2023-01-22T17:51:01.449Z,6.88
2023-01-22T17:53:27.896Z,7.68
2023-01-22T17:55:54.364Z,7.40
2023-01-22T17:58:26.713Z,7.63
2023-01-22T18:00:53.660Z,7.53
2023-01-22T18:03:20.166Z,6.97
2023-01-22T18:05:46.650Z,6.68
2023-01-22T18:08:13.187Z,6.85
2023-01-22T18:10:39.798Z,7.13
2023-01-22T18:13:06.298Z,6.53
2023-01-22T18:15:37.189Z,6.95
2023-01-22T18:18:06.238Z,6.78
2023-01-22T18:20:32.644Z,6.72
2023-01-22T18:22:59.037Z,6.55
2023-01-22T18:25:25.544Z,5.97
2023-01-22T18:27:53.742Z,6.35
2023-01-22T18:30:23.929Z,6.60
2023-01-22T18:32:50.392Z,6.05
2023-01-22T18:35:17.200Z,6.60
2023-01-22T18:37:44.009Z,6.22
2023-01-22T18:40:10.991Z,6.28
2023-01-22T18:42:37.485Z,5.95
2023-01-22T18:45:04.266Z,6.45
2023-01-22T18:47:33.986Z,6.20
2023-01-22T18:50:00.501Z,6.05
2023-01-22T18:52:27.297Z,6.28
2023-01-22T18:54:53.808Z,6.20
2023-01-22T18:57:20.294Z,6.10
2023-01-22T18:59:46.832Z,6.70
2023-01-22T19:02:16.148Z,6.47
2023-01-22T19:04:42.599Z,6.45
2023-01-22T19:07:18.438Z,6.95
2023-01-22T19:09:44.864Z,7.28
2023-01-22T19:12:13.634Z,6.80
2023-01-22T19:14:40.134Z,6.70
2023-01-22T19:17:09.373Z,6.70
2023-01-22T19:19:36.147Z,6.22
2023-01-22T19:22:03.402Z,6.43
2023-01-22T19:24:30.718Z,6.55
2023-01-22T19:26:57.434Z,6.57
2023-01-22T19:29:25.344Z,6.85
2023-01-22T19:31:52.564Z,6.80
2023-01-22T19:34:23.483Z,6.22
2023-01-22T19:36:54.217Z,6.78
2023-01-22T19:39:21.133Z,6.03
2023-01-22T19:41:47.620Z,6.30
2023-01-22T19:44:14.075Z,6.60
2023-01-22T19:46:40.851Z,6.72
2023-01-22T19:49:07.852Z,6.43
2023-01-22T19:51:35.136Z,6.38
2023-01-22T19:54:01.940Z,6.45
2023-01-22T19:56:35.675Z,6.80
2023-01-22T19:59:05.858Z,6.57
2023-01-22T20:01:36.087Z,5.90
2023-01-22T20:04:03.952Z,6.80
2023-01-22T20:06:30.616Z,6.32
2023-01-22T20:08:57.298Z,6.10
2023-01-22T20:11:23.830Z,6.30
2023-01-22T20:13:50.227Z,6.45
2023-01-22T20:16:18.634Z,6.50
2023-01-22T20:18:45.224Z,6.60
2023-01-22T20:21:12.382Z,7.28
2023-01-22T20:23:38.787Z,6.47
2023-01-22T20:26:08.673Z,6.75
2023-01-22T20:28:35.255Z,6.82
2023-01-22T20:31:04.031Z,6.63
2023-01-22T20:33:31.374Z,7.30
2023-01-22T20:36:01.041Z,6.85
2023-01-22T20:38:28.194Z,7.32
2023-01-22T20:40:54.684Z,6.97
2023-01-22T20:43:29.679Z,7.10
2023-01-22T20:46:07.162Z,7.68
2023-01-22T20:48:34.335Z,7.35
2023-01-22T20:51:01.459Z,7.50
2023-01-22T20:53:28.632Z,7.80
2023-01-22T20:55:59.507Z,7.68
2023-01-22T20:58:28.069Z,7.30
2023-01-22T21:00:54.759Z,7.57
2023-01-22T21:03:21.753Z,7.68
2023-01-22T21:05:48.279Z,7.60
2023-01-22T21:08:15.080Z,7.28
2023-01-22T21:10:41.653Z,7.60
2023-01-22T21:13:08.195Z,7.28
2023-01-22T21:15:34.630Z,7.10
2023-01-22T21:18:03.424Z,7.63
2023-01-22T21:20:30.178Z,7.93
2023-01-22T21:22:56.655Z,7.85
2023-01-22T21:25:26.118Z,7.50
2023-01-22T21:27:52.571Z,7.65
2023-01-22T21:30:27.582Z,7.90
2023-01-22T21:32:54.603Z,6.70
2023-01-22T21:35:21.507Z,7.32
2023-01-22T21:37:48.083Z,7.03
2023-01-22T21:40:15.023Z,7.65
2023-01-22T21:43:01.652Z,7.45
2023-01-22T21:45:49.682Z,7.10
2023-01-22T21:48:16.140Z,6.82
2023-01-22T21:50:43.255Z,7.10
2023-01-22T21:53:10.407Z,7.18
2023-01-22T21:55:39.049Z,6.97
2023-01-22T21:58:08.430Z,6.97
2023-01-22T22:00:35.348Z,7.28
2023-01-22T22:03:01.830Z,6.97
2023-01-22T22:05:37.322Z,7.35
2023-01-22T22:08:03.848Z,6.88
2023-01-22T22:10:30.288Z,6.28
2023-01-22T22:13:26.509Z,6.60
2023-01-22T22:15:53.704Z,7.15
2023-01-22T22:18:20.506Z,7.20
2023-01-22T22:20:46.968Z,6.88
2023-01-22T22:23:15.785Z,6.63
2023-01-22T22:25:46.423Z,6.57
2023-01-22T22:28:15.222Z,6.78
2023-01-22T22:30:41.739Z,6.60
2023-01-22T22:33:08.511Z,6.97
2023-01-22T22:35:35.013Z,6.53
2023-01-22T22:38:03.810Z,6.75
2023-01-22T22:40:30.285Z,6.63
2023-01-22T22:42:56.660Z,6.95
2023-01-22T22:45:23.149Z,6.38
2023-01-22T22:47:49.589Z,6.35
2023-01-22T22:50:19.238Z,6.78
2023-01-22T22:52:47.358Z,6.72
2023-01-22T22:55:14.184Z,6.47
2023-01-22T22:57:46.521Z,6.78
2023-01-22T23:00:13.300Z,6.93
2023-01-22T23:02:39.719Z,6.63
2023-01-22T23:05:06.397Z,6.30
2023-01-22T23:07:32.784Z,5.78
2023-01-22T23:09:59.236Z,6.63
2023-01-22T23:12:25.669Z,6.70
2023-01-22T23:14:54.519Z,6.07
2023-01-22T23:17:20.911Z,6.47
2023-01-22T23:19:47.309Z,6.30
2023-01-22T23:22:13.756Z,5.93
2023-01-22T23:24:40.391Z,6.03
2023-01-22T23:27:06.851Z,5.70
2023-01-22T23:29:37.403Z,6.38
2023-01-22T23:32:03.900Z,6.00
2023-01-22T23:34:34.583Z,6.20
2023-01-22T23:37:01.131Z,5.72
2023-01-22T23:39:27.533Z,5.97
2023-01-22T23:41:54.008Z,5.60
2023-01-22T23:44:20.418Z,5.93
2023-01-22T23:46:46.900Z,6.03
2023-01-22T23:49:13.280Z,5.57
2023-01-22T23:51:42.218Z,5.88
2023-01-22T23:54:09.040Z,6.05
2023-01-22T23:56:36.493Z,5.88
2023-01-22T23:59:02.964Z,5.30
